WetterOnline ( https://www.wetteronline.de )

Wetter aktuell Gundelfingen

Aktuelles Wetter: Feldberg/Schwarzwald (1493m)

6-stündlich | Neueste Meldungen
Ortszeit Temperatur Wetter
Mo, 25.10. 14:00 8.1° C fast wolkenlos
Mo, 25.10. 8:00 6.2° C wolkig
Mo, 25.10. 2:00 7.9° C bedeckt
So, 24.10. 20:00 7.3° C wolkenlos
So, 24.10. 14:00 9.5° C wolkenlos
So, 24.10. 8:00 7.6° C wolkenlos
So, 24.10. 2:00 7.3° C wolkenlos
Sa, 23.10. 20:00 0.6° C wolkenlos
Ortszeit Temperatur Wetter
Mo, 25.10. 14:00 8.1° C fast wolkenlos
Mo, 25.10. 13:30 8.4° C wolkenlos
Mo, 25.10. 13:20 8.4° C wolkenlos
Mo, 25.10. 13:10 8.1° C wolkenlos
Mo, 25.10. 13:00 8.1° C fast wolkenlos
Mo, 25.10. 12:50 8.1° C fast wolkenlos
Mo, 25.10. 12:30 7.6° C bewölkt
Mo, 25.10. 12:00 7.2° C bedeckt
Mo, 25.10. 11:30 7.3° C bedeckt
Mo, 25.10. 11:00 7.3° C bewölkt
Mo, 25.10. 10:30 7.6° C leicht bewölkt
Ortszeit Relative Feuchte Sichtweite
Mo, 25.10. 14:00 48% >70 km
Mo, 25.10. 8:00 56% >70 km
Mo, 25.10. 2:00 39% 60 km
So, 24.10. 20:00 33% >70 km
So, 24.10. 14:00 44% 40 km
So, 24.10. 8:00 32% >70 km
So, 24.10. 2:00 8% >70 km
Sa, 23.10. 20:00 90% 28 km
Ortszeit Relative Feuchte Sichtweite
Mo, 25.10. 14:00 48% >70 km
Mo, 25.10. 13:30 55% >70 km
Mo, 25.10. 13:20 55% -
Mo, 25.10. 13:10 50% -
Mo, 25.10. 13:00 53% 50 km
Mo, 25.10. 12:50 53% -
Mo, 25.10. 12:30 60% 65 km
Mo, 25.10. 12:00 59% >70 km
Mo, 25.10. 11:30 57% 45 km
Mo, 25.10. 11:00 57% 40 km
Mo, 25.10. 10:30 53% >70 km
Ortszeit Niederschlagsmenge Niederschlagsart
Mo, 25.10. 14:00 0.0 l/m2 in 6 Std. -
Mo, 25.10. 8:00 0.0 l/m2 in 12 Std. -
Mo, 25.10. 2:00 0.0 l/m2 in 6 Std. -
So, 24.10. 20:00 0.0 l/m2 in 12 Std. -
So, 24.10. 14:00 0.0 l/m2 in 6 Std. -
So, 24.10. 8:00 0.0 l/m2 in 12 Std. -
So, 24.10. 2:00 0.0 l/m2 in 6 Std. -
Sa, 23.10. 20:00 0.0 l/m2 in 12 Std. -
Ortszeit Niederschlagsmenge Niederschlagsart
Mo, 25.10. 14:00 keine Meldung -
Mo, 25.10. 13:30 0.0 l/m2 in 1 Std. -
Mo, 25.10. 13:20 keine Meldung -
Mo, 25.10. 13:10 keine Meldung -
Mo, 25.10. 13:00 0.0 l/m2 in 1 Std. -
Mo, 25.10. 12:50 keine Meldung -
Mo, 25.10. 12:30 0.0 l/m2 in 1 Std. -
Mo, 25.10. 12:00 0.0 l/m2 in 1 Std. -
Mo, 25.10. 11:30 0.0 l/m2 in 1 Std. -
Mo, 25.10. 11:00 0.0 l/m2 in 1 Std. -
Mo, 25.10. 10:30 0.0 l/m2 in 1 Std. -
Ortszeit Stärke Spitze Richtung
km/h Bft. km/h Grad Sektor
Mo, 25.10. 14:00 20 4 26 210° SW
Mo, 25.10. 8:00 22 4 25 210° SW
Mo, 25.10. 2:00 18 3 29 250° W
So, 24.10. 20:00 18 3 43 250° W
So, 24.10. 14:00 24 4 44 210° SW
So, 24.10. 8:00 31 5 57 160° S
So, 24.10. 2:00 56 7 63 110° O
Sa, 23.10. 20:00 54 7 61 110° O
Ortszeit Stärke Spitze Richtung
km/h Bft. km/h Grad Sektor
Mo, 25.10. 14:00 20 4 26 210° SW
Mo, 25.10. 13:30 17 3 26 210° SW
Mo, 25.10. 13:20 17 3 - 210° SW
Mo, 25.10. 13:10 18 3 - 200° S
Mo, 25.10. 13:00 18 3 25 200° S
Mo, 25.10. 12:50 18 3 - 200° S
Mo, 25.10. 12:30 11 2 14 200° S
Mo, 25.10. 12:00 9 2 15 210° SW
Mo, 25.10. 11:30 11 2 14 210° SW
Mo, 25.10. 11:00 11 2 18 200° S
Mo, 25.10. 10:30 11 2 18 200° S
Ortszeit Untergrenze Bedeckung Gattung
total tief tief mittel hoch
Mo, 25.10. 14:00 2700 m 1/8 1/8 - - -
Mo, 25.10. 8:00 4200 m 6/8 6/8 - - -
Mo, 25.10. 2:00 5700 m 8/8 8/8 - - -
So, 24.10. 20:00 - 0/8 0/8 - - -
So, 24.10. 14:00 - 0/8 0/8 - - -
So, 24.10. 8:00 - 0/8 0/8 - - -
So, 24.10. 2:00 - 0/8 0/8 - - -
Sa, 23.10. 20:00 - 0/8 0/8 - - -
Ortszeit Bedeckungsgrad in Achtel und Wolkenuntergrenze
Mo, 25.10. 14:00 1(2700m)
Mo, 25.10. 13:30 keine Wolken
Mo, 25.10. 13:20 keine Wolken
Mo, 25.10. 13:10 keine Wolken
Mo, 25.10. 13:00 1(3000m)
Mo, 25.10. 12:50 1(3000m)
Mo, 25.10. 12:30 7(3300m)
Mo, 25.10. 12:00 8(3300m)
Mo, 25.10. 11:30 8(3300m)
Mo, 25.10. 11:00 7(3300m)
Mo, 25.10. 10:30 2(3600m)
Ortszeit Stationsdruck (hPa) Tendenz (hPa in 3 Std.)
Mo, 25.10. 14:00 854 - 0,4
Mo, 25.10. 8:00 854 - 0,6
Mo, 25.10. 2:00 855 - 0,4
So, 24.10. 20:00 856 0,0
So, 24.10. 14:00 857 + 0,2
So, 24.10. 8:00 856 + 0,3
So, 24.10. 2:00 856 - 0,4
Sa, 23.10. 20:00 857 - 0,5
Ortszeit Stationsdruck (hPa) Tendenz (hPa in 3 Std.)
Mo, 25.10. 14:00 854 - 0,4
Mo, 25.10. 13:30 854 - 0,2
Mo, 25.10. 13:20 854 keine Meldung
Mo, 25.10. 13:10 854 keine Meldung
Mo, 25.10. 13:00 854 - 0,2
Mo, 25.10. 12:50 854 keine Meldung
Mo, 25.10. 12:30 854 0,0
Mo, 25.10. 12:00 854 + 0,2
Mo, 25.10. 11:30 854 + 0,2
Mo, 25.10. 11:00 854 + 0,4
Mo, 25.10. 10:30 854 + 0,3
Ortszeit Schneehöhe (cm)
Mo, 25.10. 14:00 0
Mo, 25.10. 8:00 0
Mo, 25.10. 2:00 0
So, 24.10. 20:00 0
So, 24.10. 14:00 0
So, 24.10. 8:00 0
So, 24.10. 2:00 0
Sa, 23.10. 20:00 0
Ortszeit Schneehöhe (cm)
Mo, 25.10. 14:00 0
Mo, 25.10. 13:30 0
Mo, 25.10. 13:20 0
Mo, 25.10. 13:10 0
Mo, 25.10. 13:00 0
Mo, 25.10. 12:50 0
Mo, 25.10. 12:30 0
Mo, 25.10. 12:00 0
Mo, 25.10. 11:30 0
Mo, 25.10. 11:00 0
Mo, 25.10. 10:30 0
Link zu dieser Seite / Seite empfehlen

Das Wetter in ...